sensor_id;sensor_type;location;lat;lon;timestamp;temperature;humidity
64652;HTU21D;51062;45.120;37.660;2022-12-07T00:01:23;0.66;83.43
64652;HTU21D;51062;45.120;37.660;2022-12-07T00:03:52;0.65;83.49
64652;HTU21D;51062;45.120;37.660;2022-12-07T00:06:20;0.63;83.50
64652;HTU21D;51062;45.120;37.660;2022-12-07T00:08:46;0.63;83.52
64652;HTU21D;51062;45.120;37.660;2022-12-07T00:11:22;0.61;83.52
64652;HTU21D;51062;45.120;37.660;2022-12-07T00:14:00;0.57;83.52
64652;HTU21D;51062;45.120;37.660;2022-12-07T00:16:29;0.53;83.45
64652;HTU21D;51062;45.120;37.660;2022-12-07T00:18:56;0.48;83.45
64652;HTU21D;51062;45.120;37.660;2022-12-07T00:21:33;0.42;83.44
64652;HTU21D;51062;45.120;37.660;2022-12-07T00:24:01;0.35;83.49
64652;HTU21D;51062;45.120;37.660;2022-12-07T00:26:38;0.31;83.53
64652;HTU21D;51062;45.120;37.660;2022-12-07T00:29:21;0.27;83.55
64652;HTU21D;51062;45.120;37.660;2022-12-07T00:31:47;0.24;83.55
64652;HTU21D;51062;45.120;37.660;2022-12-07T00:34:19;0.19;83.54
64652;HTU21D;51062;45.120;37.660;2022-12-07T00:36:45;0.17;83.56
64652;HTU21D;51062;45.120;37.660;2022-12-07T00:39:12;0.13;83.61
64652;HTU21D;51062;45.120;37.660;2022-12-07T00:41:38;0.10;83.70
64652;HTU21D;51062;45.120;37.660;2022-12-07T00:44:04;0.09;83.78
64652;HTU21D;51062;45.120;37.660;2022-12-07T00:46:30;0.09;83.80
64652;HTU21D;51062;45.120;37.660;2022-12-07T00:48:57;0.07;83.80
64652;HTU21D;51062;45.120;37.660;2022-12-07T00:51:24;0.05;83.85
64652;HTU21D;51062;45.120;37.660;2022-12-07T00:53:51;0.04;83.87
64652;HTU21D;51062;45.120;37.660;2022-12-07T00:56:26;0.01;83.87
64652;HTU21D;51062;45.120;37.660;2022-12-07T00:59:03;-0.01;83.92
64652;HTU21D;51062;45.120;37.660;2022-12-07T01:01:32;-0.02;83.91
64652;HTU21D;51062;45.120;37.660;2022-12-07T01:03:59;-0.01;83.89
64652;HTU21D;51062;45.120;37.660;2022-12-07T01:06:27;-0.01;83.86
64652;HTU21D;51062;45.120;37.660;2022-12-07T01:08:54;-0.02;83.80
64652;HTU21D;51062;45.120;37.660;2022-12-07T01:11:23;-0.03;83.72
64652;HTU21D;51062;45.120;37.660;2022-12-07T01:13:51;-0.05;83.70
64652;HTU21D;51062;45.120;37.660;2022-12-07T01:16:18;-0.07;83.65
64652;HTU21D;51062;45.120;37.660;2022-12-07T01:18:49;-0.07;83.65
64652;HTU21D;51062;45.120;37.660;2022-12-07T01:21:24;-0.08;83.67
64652;HTU21D;51062;45.120;37.660;2022-12-07T01:23:51;-0.07;83.66
64652;HTU21D;51062;45.120;37.660;2022-12-07T01:26:20;-0.09;83.68
64652;HTU21D;51062;45.120;37.660;2022-12-07T01:28:47;-0.10;83.69
64652;HTU21D;51062;45.120;37.660;2022-12-07T01:31:15;-0.09;83.71
64652;HTU21D;51062;45.120;37.660;2022-12-07T01:33:44;-0.09;83.69
64652;HTU21D;51062;45.120;37.660;2022-12-07T01:36:31;-0.10;83.75
64652;HTU21D;51062;45.120;37.660;2022-12-07T01:38:59;-0.10;83.71
64652;HTU21D;51062;45.120;37.660;2022-12-07T01:41:31;-0.13;83.71
64652;HTU21D;51062;45.120;37.660;2022-12-07T01:44:20;-0.16;83.77
64652;HTU21D;51062;45.120;37.660;2022-12-07T01:46:51;-0.17;83.74
64652;HTU21D;51062;45.120;37.660;2022-12-07T01:52:21;-0.23;83.82
64652;HTU21D;51062;45.120;37.660;2022-12-07T01:54:51;-0.26;83.81
64652;HTU21D;51062;45.120;37.660;2022-12-07T01:57:18;-0.27;83.84
64652;HTU21D;51062;45.120;37.660;2022-12-07T01:59:45;-0.27;83.85
64652;HTU21D;51062;45.120;37.660;2022-12-07T02:02:27;-0.27;83.90
64652;HTU21D;51062;45.120;37.660;2022-12-07T02:04:55;-0.27;83.88
64652;HTU21D;51062;45.120;37.660;2022-12-07T02:07:23;-0.29;83.87
64652;HTU21D;51062;45.120;37.660;2022-12-07T02:09:50;-0.30;83.88
64652;HTU21D;51062;45.120;37.660;2022-12-07T02:12:16;-0.30;83.88
64652;HTU21D;51062;45.120;37.660;2022-12-07T02:14:42;-0.34;83.90
64652;HTU21D;51062;45.120;37.660;2022-12-07T02:30:22;-0.37;84.07
64652;HTU21D;51062;45.120;37.660;2022-12-07T02:35:33;-0.36;84.11
64652;HTU21D;51062;45.120;37.660;2022-12-07T02:41:04;-0.38;84.05
64652;HTU21D;51062;45.120;37.660;2022-12-07T02:43:57;-0.40;84.06
64652;HTU21D;51062;45.120;37.660;2022-12-07T02:46:28;-0.42;84.04
64652;HTU21D;51062;45.120;37.660;2022-12-07T02:48:56;-0.43;84.05
64652;HTU21D;51062;45.120;37.660;2022-12-07T02:51:25;-0.42;84.11
64652;HTU21D;51062;45.120;37.660;2022-12-07T02:53:51;-0.43;84.19
64652;HTU21D;51062;45.120;37.660;2022-12-07T02:59:15;-0.43;84.29
64652;HTU21D;51062;45.120;37.660;2022-12-07T03:13:13;-0.38;84.36
64652;HTU21D;51062;45.120;37.660;2022-12-07T03:18:25;-0.40;84.29
64652;HTU21D;51062;45.120;37.660;2022-12-07T03:20:55;-0.40;84.31
64652;HTU21D;51062;45.120;37.660;2022-12-07T03:23:23;-0.42;84.29
64652;HTU21D;51062;45.120;37.660;2022-12-07T03:25:56;-0.40;84.35
64652;HTU21D;51062;45.120;37.660;2022-12-07T03:28:28;-0.40;84.35
64652;HTU21D;51062;45.120;37.660;2022-12-07T03:31:19;-0.40;84.38
64652;HTU21D;51062;45.120;37.660;2022-12-07T03:36:32;-0.37;84.45
64652;HTU21D;51062;45.120;37.660;2022-12-07T03:41:59;-0.36;84.52
64652;HTU21D;51062;45.120;37.660;2022-12-07T03:44:26;-0.34;84.53
64652;HTU21D;51062;45.120;37.660;2022-12-07T03:47:00;-0.30;84.59
64652;HTU21D;51062;45.120;37.660;2022-12-07T03:49:30;-0.27;84.65
64652;HTU21D;51062;45.120;37.660;2022-12-07T03:54:36;-0.22;84.65
64652;HTU21D;51062;45.120;37.660;2022-12-07T03:57:04;-0.20;84.69
64652;HTU21D;51062;45.120;37.660;2022-12-07T03:59:31;-0.15;84.73
64652;HTU21D;51062;45.120;37.660;2022-12-07T04:02:03;-0.12;84.74
64652;HTU21D;51062;45.120;37.660;2022-12-07T04:04:29;-0.09;84.69
64652;HTU21D;51062;45.120;37.660;2022-12-07T04:06:56;-0.08;84.68
64652;HTU21D;51062;45.120;37.660;2022-12-07T04:09:23;-0.08;84.64
64652;HTU21D;51062;45.120;37.660;2022-12-07T04:11:50;-0.09;84.70
64652;HTU21D;51062;45.120;37.660;2022-12-07T04:14:16;-0.09;84.73
64652;HTU21D;51062;45.120;37.660;2022-12-07T04:16:50;-0.09;84.80
64652;HTU21D;51062;45.120;37.660;2022-12-07T04:19:19;-0.09;84.83
64652;HTU21D;51062;45.120;37.660;2022-12-07T04:21:46;-0.08;84.84
64652;HTU21D;51062;45.120;37.660;2022-12-07T04:24:14;-0.07;84.87
64652;HTU21D;51062;45.120;37.660;2022-12-07T04:26:41;-0.07;84.87
64652;HTU21D;51062;45.120;37.660;2022-12-07T04:29:08;-0.07;84.96
64652;HTU21D;51062;45.120;37.660;2022-12-07T04:31:35;-0.05;85.02
64652;HTU21D;51062;45.120;37.660;2022-12-07T04:34:02;-0.06;85.07
64652;HTU21D;51062;45.120;37.660;2022-12-07T04:36:28;-0.07;85.10
64652;HTU21D;51062;45.120;37.660;2022-12-07T04:38:55;-0.06;85.15
64652;HTU21D;51062;45.120;37.660;2022-12-07T04:41:22;-0.03;85.19
64652;HTU21D;51062;45.120;37.660;2022-12-07T04:44:03;-0.02;85.20
64652;HTU21D;51062;45.120;37.660;2022-12-07T04:46:33;-0.02;85.17
64652;HTU21D;51062;45.120;37.660;2022-12-07T04:48:59;-0.02;85.16
64652;HTU21D;51062;45.120;37.660;2022-12-07T04:51:27;-0.05;85.17
64652;HTU21D;51062;45.120;37.660;2022-12-07T04:53:54;-0.06;85.18
64652;HTU21D;51062;45.120;37.660;2022-12-07T04:56:22;-0.07;85.19
64652;HTU21D;51062;45.120;37.660;2022-12-07T04:58:49;-0.06;85.22
64652;HTU21D;51062;45.120;37.660;2022-12-07T05:01:17;-0.03;85.29
64652;HTU21D;51062;45.120;37.660;2022-12-07T05:03:43;-0.03;85.29
64652;HTU21D;51062;45.120;37.660;2022-12-07T05:06:10;-0.01;85.31
64652;HTU21D;51062;45.120;37.660;2022-12-07T05:08:37;0.01;85.35
64652;HTU21D;51062;45.120;37.660;2022-12-07T05:11:06;0.04;85.35
64652;HTU21D;51062;45.120;37.660;2022-12-07T05:13:34;0.06;85.38
64652;HTU21D;51062;45.120;37.660;2022-12-07T05:16:02;0.10;85.42
64652;HTU21D;51062;45.120;37.660;2022-12-07T05:18:29;0.15;85.45
64652;HTU21D;51062;45.120;37.660;2022-12-07T05:20:57;0.20;85.47
64652;HTU21D;51062;45.120;37.660;2022-12-07T05:23:26;0.27;85.45
64652;HTU21D;51062;45.120;37.660;2022-12-07T05:25:52;0.31;85.42
64652;HTU21D;51062;45.120;37.660;2022-12-07T05:28:18;0.31;85.35
64652;HTU21D;51062;45.120;37.660;2022-12-07T05:30:44;0.31;85.38
64652;HTU21D;51062;45.120;37.660;2022-12-07T05:33:10;0.32;85.41
64652;HTU21D;51062;45.120;37.660;2022-12-07T05:35:36;0.34;85.42
64652;HTU21D;51062;45.120;37.660;2022-12-07T05:38:03;0.36;85.46
64652;HTU21D;51062;45.120;37.660;2022-12-07T05:40:29;0.36;85.46
64652;HTU21D;51062;45.120;37.660;2022-12-07T05:42:55;0.39;85.52
64652;HTU21D;51062;45.120;37.660;2022-12-07T05:45:21;0.39;85.47
64652;HTU21D;51062;45.120;37.660;2022-12-07T05:47:47;0.39;85.48
64652;HTU21D;51062;45.120;37.660;2022-12-07T05:50:13;0.42;85.55
64652;HTU21D;51062;45.120;37.660;2022-12-07T05:52:39;0.44;85.55
64652;HTU21D;51062;45.120;37.660;2022-12-07T05:55:06;0.45;85.60
64652;HTU21D;51062;45.120;37.660;2022-12-07T05:57:32;0.47;85.58
64652;HTU21D;51062;45.120;37.660;2022-12-07T05:59:58;0.49;85.60
64652;HTU21D;51062;45.120;37.660;2022-12-07T06:02:24;0.51;85.56
64652;HTU21D;51062;45.120;37.660;2022-12-07T06:04:50;0.52;85.61
64652;HTU21D;51062;45.120;37.660;2022-12-07T06:07:17;0.55;85.67
64652;HTU21D;51062;45.120;37.660;2022-12-07T06:09:43;0.59;85.65
64652;HTU21D;51062;45.120;37.660;2022-12-07T06:12:12;0.60;85.60
64652;HTU21D;51062;45.120;37.660;2022-12-07T06:14:57;0.61;85.60
64652;HTU21D;51062;45.120;37.660;2022-12-07T06:17:24;0.63;85.58
64652;HTU21D;51062;45.120;37.660;2022-12-07T06:19:50;0.64;85.61
64652;HTU21D;51062;45.120;37.660;2022-12-07T06:22:17;0.67;85.60
64652;HTU21D;51062;45.120;37.660;2022-12-07T06:24:43;0.71;85.51
64652;HTU21D;51062;45.120;37.660;2022-12-07T06:27:10;0.72;85.55
64652;HTU21D;51062;45.120;37.660;2022-12-07T06:29:36;0.77;85.47
64652;HTU21D;51062;45.120;37.660;2022-12-07T06:32:03;0.79;85.50
64652;HTU21D;51062;45.120;37.660;2022-12-07T06:34:29;0.84;0.00
64652;HTU21D;51062;45.120;37.660;2022-12-07T06:36:55;0.89;0.00
64652;HTU21D;51062;45.120;37.660;2022-12-07T06:39:26;0.91;85.33
64652;HTU21D;51062;45.120;37.660;2022-12-07T06:41:52;0.98;85.33
64652;HTU21D;51062;45.120;37.660;2022-12-07T06:44:20;0.00;82.86
64652;HTU21D;51062;45.120;37.660;2022-12-07T06:46:48;1.07;85.31
64652;HTU21D;51062;45.120;37.660;2022-12-07T06:49:14;1.14;85.26
64652;HTU21D;51062;45.120;37.660;2022-12-07T06:51:41;1.21;85.13
64652;HTU21D;51062;45.120;37.660;2022-12-07T06:54:12;1.25;85.04
64652;HTU21D;51062;45.120;37.660;2022-12-07T06:56:38;0.00;0.00
64652;HTU21D;51062;45.120;37.660;2022-12-07T06:59:06;0.00;84.97
64652;HTU21D;51062;45.120;37.660;2022-12-07T07:01:34;1.53;84.97
64652;HTU21D;51062;45.120;37.660;2022-12-07T07:04:01;1.53;84.51
64652;HTU21D;51062;45.120;37.660;2022-12-07T07:06:27;0.00;84.51
64652;HTU21D;51062;45.120;37.660;2022-12-07T07:08:54;0.00;0.00
64652;HTU21D;51062;45.120;37.660;2022-12-07T07:11:20;0.00;0.00
64652;HTU21D;51062;45.120;37.660;2022-12-07T07:13:46;1.55;84.42
64652;HTU21D;51062;45.120;37.660;2022-12-07T07:16:12;1.69;84.38
64652;HTU21D;51062;45.120;37.660;2022-12-07T07:18:38;0.00;0.00
64652;HTU21D;51062;45.120;37.660;2022-12-07T07:21:05;2.05;83.91
64652;HTU21D;51062;45.120;37.660;2022-12-07T07:23:31;2.42;83.54
64652;HTU21D;51062;45.120;37.660;2022-12-07T07:25:57;0.00;0.00
64652;HTU21D;51062;45.120;37.660;2022-12-07T07:28:23;2.46;0.00
64652;HTU21D;51062;45.120;37.660;2022-12-07T07:31:09;2.56;0.00
64652;HTU21D;51062;45.120;37.660;2022-12-07T07:33:35;2.66;82.97
64652;HTU21D;51062;45.120;37.660;2022-12-07T07:36:01;3.08;0.00
64652;HTU21D;51062;45.120;37.660;2022-12-07T07:38:27;3.86;81.51
64652;HTU21D;51062;45.120;37.660;2022-12-07T07:40:53;4.41;80.07
64652;HTU21D;51062;45.120;37.660;2022-12-07T07:43:19;4.72;79.44
64652;HTU21D;51062;45.120;37.660;2022-12-07T07:45:46;4.87;78.80
64652;HTU21D;51062;45.120;37.660;2022-12-07T07:48:12;4.96;78.68
64652;HTU21D;51062;45.120;37.660;2022-12-07T07:50:38;5.08;78.35
64652;HTU21D;51062;45.120;37.660;2022-12-07T07:53:04;5.03;78.10
64652;HTU21D;51062;45.120;37.660;2022-12-07T07:55:30;0.00;78.38
64652;HTU21D;51062;45.120;37.660;2022-12-07T07:57:56;5.04;78.23
64652;HTU21D;51062;45.120;37.660;2022-12-07T08:00:24;5.18;78.04
64652;HTU21D;51062;45.120;37.660;2022-12-07T08:02:50;5.36;77.87
64652;HTU21D;51062;45.120;37.660;2022-12-07T08:05:16;0.00;77.59
64652;HTU21D;51062;45.120;37.660;2022-12-07T08:07:42;5.89;77.05
64652;HTU21D;51062;45.120;37.660;2022-12-07T08:10:11;6.12;76.73
64652;HTU21D;51062;45.120;37.660;2022-12-07T08:12:42;6.09;76.44
64652;HTU21D;51062;45.120;37.660;2022-12-07T08:15:29;5.93;76.93
64652;HTU21D;51062;45.120;37.660;2022-12-07T08:17:59;0.00;0.00
64652;HTU21D;51062;45.120;37.660;2022-12-07T08:20:26;5.34;78.43
64652;HTU21D;51062;45.120;37.660;2022-12-07T08:22:52;4.81;78.80
64652;HTU21D;51062;45.120;37.660;2022-12-07T08:25:20;4.39;79.43
64652;HTU21D;51062;45.120;37.660;2022-12-07T08:27:48;0.00;80.18
64652;HTU21D;51062;45.120;37.660;2022-12-07T08:30:14;4.21;80.76
64652;HTU21D;51062;45.120;37.660;2022-12-07T08:32:41;4.30;81.03
64652;HTU21D;51062;45.120;37.660;2022-12-07T08:35:08;4.35;81.06
64652;HTU21D;51062;45.120;37.660;2022-12-07T08:37:34;4.43;81.10
64652;HTU21D;51062;45.120;37.660;2022-12-07T08:40:00;12.17;80.88
64652;HTU21D;51062;45.120;37.660;2022-12-07T08:42:26;8.05;0.00
64652;HTU21D;51062;45.120;37.660;2022-12-07T08:44:59;1.19;0.00
64652;HTU21D;51062;45.120;37.660;2022-12-07T08:48:05;4.04;80.68
64652;HTU21D;51062;45.120;37.660;2022-12-07T08:50:36;3.93;81.07
64652;HTU21D;51062;45.120;37.660;2022-12-07T08:53:04;3.91;81.07
64652;HTU21D;51062;45.120;37.660;2022-12-07T08:55:31;3.90;81.18
64652;HTU21D;51062;45.120;37.660;2022-12-07T08:58:01;3.90;81.18
64652;HTU21D;51062;45.120;37.660;2022-12-07T09:00:28;3.90;81.37
64652;HTU21D;51062;45.120;37.660;2022-12-07T09:02:54;3.93;81.41
64652;HTU21D;51062;45.120;37.660;2022-12-07T09:05:40;3.92;81.27
64652;HTU21D;51062;45.120;37.660;2022-12-07T09:08:07;3.93;81.49
64652;HTU21D;51062;45.120;37.660;2022-12-07T09:10:33;3.97;81.42
64652;HTU21D;51062;45.120;37.660;2022-12-07T09:12:59;3.97;81.61
64652;HTU21D;51062;45.120;37.660;2022-12-07T09:15:28;3.97;81.42
64652;HTU21D;51062;45.120;37.660;2022-12-07T09:17:55;3.92;81.60
64652;HTU21D;51062;45.120;37.660;2022-12-07T09:20:41;0.00;81.88
64652;HTU21D;51062;45.120;37.660;2022-12-07T09:23:08;3.90;81.73
64652;HTU21D;51062;45.120;37.660;2022-12-07T09:25:34;3.93;81.78
64652;HTU21D;51062;45.120;37.660;2022-12-07T09:28:00;3.99;81.97
64652;HTU21D;51062;45.120;37.660;2022-12-07T09:30:27;4.04;0.00
64652;HTU21D;51062;45.120;37.660;2022-12-07T09:32:54;0.00;0.00
64652;HTU21D;51062;45.120;37.660;2022-12-07T09:35:21;0.00;0.00
64652;HTU21D;51062;45.120;37.660;2022-12-07T09:37:47;0.00;82.04
64652;HTU21D;51062;45.120;37.660;2022-12-07T09:40:14;4.12;0.00
64652;HTU21D;51062;45.120;37.660;2022-12-07T09:42:47;0.00;82.15
64652;HTU21D;51062;45.120;37.660;2022-12-07T09:45:35;4.20;0.00
64652;HTU21D;51062;45.120;37.660;2022-12-07T09:48:04;4.35;82.20
64652;HTU21D;51062;45.120;37.660;2022-12-07T09:50:30;4.49;82.17
64652;HTU21D;51062;45.120;37.660;2022-12-07T09:53:08;4.60;82.21
64652;HTU21D;51062;45.120;37.660;2022-12-07T09:55:36;4.69;81.97
64652;HTU21D;51062;45.120;37.660;2022-12-07T09:58:03;4.74;81.88
64652;HTU21D;51062;45.120;37.660;2022-12-07T10:00:31;4.81;82.03
64652;HTU21D;51062;45.120;37.660;2022-12-07T10:03:00;4.92;82.20
64652;HTU21D;51062;45.120;37.660;2022-12-07T10:05:31;4.98;82.10
64652;HTU21D;51062;45.120;37.660;2022-12-07T10:07:59;5.01;81.98
64652;HTU21D;51062;45.120;37.660;2022-12-07T10:10:29;5.00;81.93
64652;HTU21D;51062;45.120;37.660;2022-12-07T10:13:03;4.94;81.71
64652;HTU21D;51062;45.120;37.660;2022-12-07T10:15:59;4.87;81.76
64652;HTU21D;51062;45.120;37.660;2022-12-07T10:23:27;4.86;81.97
64652;HTU21D;51062;45.120;37.660;2022-12-07T10:25:53;4.88;81.99
64652;HTU21D;51062;45.120;37.660;2022-12-07T10:28:21;4.88;82.02
64652;HTU21D;51062;45.120;37.660;2022-12-07T10:35:59;4.96;82.15
64652;HTU21D;51062;45.120;37.660;2022-12-07T10:38:27;4.94;82.07
64652;HTU21D;51062;45.120;37.660;2022-12-07T10:41:05;4.88;82.01
64652;HTU21D;51062;45.120;37.660;2022-12-07T10:43:33;4.80;82.04
64652;HTU21D;51062;45.120;37.660;2022-12-07T10:52:23;4.75;82.36
64652;HTU21D;51062;45.120;37.660;2022-12-07T11:00:25;4.91;82.15
64652;HTU21D;51062;45.120;37.660;2022-12-07T11:05:53;4.82;82.12
64652;HTU21D;51062;45.120;37.660;2022-12-07T11:22:11;4.52;82.45
64652;HTU21D;51062;45.120;37.660;2022-12-07T11:38:01;3.98;82.59
64652;HTU21D;51062;45.120;37.660;2022-12-07T11:40:36;3.86;82.81
64652;HTU21D;51062;45.120;37.660;2022-12-07T11:43:27;3.80;82.98
64652;HTU21D;51062;45.120;37.660;2022-12-07T11:46:09;3.72;83.10
64652;HTU21D;51062;45.120;37.660;2022-12-07T11:48:49;3.69;83.20
64652;HTU21D;51062;45.120;37.660;2022-12-07T11:51:19;3.65;83.24
64652;HTU21D;51062;45.120;37.660;2022-12-07T11:53:53;3.64;83.33
64652;HTU21D;51062;45.120;37.660;2022-12-07T11:56:23;3.63;83.41
64652;HTU21D;51062;45.120;37.660;2022-12-07T11:58:57;3.64;83.39
64652;HTU21D;51062;45.120;37.660;2022-12-07T12:06:38;3.50;83.47
64652;HTU21D;51062;45.120;37.660;2022-12-07T12:22:36;3.42;83.93
64652;HTU21D;51062;45.120;37.660;2022-12-07T12:25:06;3.41;83.87
64652;HTU21D;51062;45.120;37.660;2022-12-07T12:27:37;3.39;83.87
64652;HTU21D;51062;45.120;37.660;2022-12-07T12:30:23;3.36;83.88
64652;HTU21D;51062;45.120;37.660;2022-12-07T12:32:49;3.32;83.91
64652;HTU21D;51062;45.120;37.660;2022-12-07T12:37:54;3.29;84.00
64652;HTU21D;51062;45.120;37.660;2022-12-07T12:42:49;3.28;84.09
64652;HTU21D;51062;45.120;37.660;2022-12-07T12:45:28;3.28;84.16
64652;HTU21D;51062;45.120;37.660;2022-12-07T12:48:01;3.25;84.15
64652;HTU21D;51062;45.120;37.660;2022-12-07T13:00:47;3.27;84.21
64652;HTU21D;51062;45.120;37.660;2022-12-07T13:03:26;3.25;84.27
64652;HTU21D;51062;45.120;37.660;2022-12-07T13:08:55;3.23;84.26
64652;HTU21D;51062;45.120;37.660;2022-12-07T13:11:35;3.20;84.35
64652;HTU21D;51062;45.120;37.660;2022-12-07T13:20:05;3.19;84.35
64652;HTU21D;51062;45.120;37.660;2022-12-07T13:25:07;3.17;84.46
64652;HTU21D;51062;45.120;37.660;2022-12-07T13:27:39;3.14;84.46
64652;HTU21D;51062;45.120;37.660;2022-12-07T13:30:18;3.16;84.49
64652;HTU21D;51062;45.120;37.660;2022-12-07T13:32:52;3.17;84.47
64652;HTU21D;51062;45.120;37.660;2022-12-07T13:35:28;3.17;84.52
64652;HTU21D;51062;45.120;37.660;2022-12-07T13:37:55;3.16;84.43
64652;HTU21D;51062;45.120;37.660;2022-12-07T13:40:23;3.13;84.42
64652;HTU21D;51062;45.120;37.660;2022-12-07T13:42:58;3.13;84.45
64652;HTU21D;51062;45.120;37.660;2022-12-07T13:45:30;3.13;84.45
64652;HTU21D;51062;45.120;37.660;2022-12-07T13:48:24;3.12;84.48
64652;HTU21D;51062;45.120;37.660;2022-12-07T13:50:58;3.10;84.52
64652;HTU21D;51062;45.120;37.660;2022-12-07T13:53:24;3.10;84.60
64652;HTU21D;51062;45.120;37.660;2022-12-07T13:55:59;3.10;84.61
64652;HTU21D;51062;45.120;37.660;2022-12-07T13:58:31;3.11;84.64
64652;HTU21D;51062;45.120;37.660;2022-12-07T14:00:59;3.10;84.64
64652;HTU21D;51062;45.120;37.660;2022-12-07T14:03:31;3.10;84.64
64652;HTU21D;51062;45.120;37.660;2022-12-07T14:06:17;3.08;84.73
64652;HTU21D;51062;45.120;37.660;2022-12-07T14:08:45;3.06;84.70
64652;HTU21D;51062;45.120;37.660;2022-12-07T14:11:19;3.06;84.74
64652;HTU21D;51062;45.120;37.660;2022-12-07T14:18:44;3.03;84.73
64652;HTU21D;51062;45.120;37.660;2022-12-07T14:23:38;3.02;84.74
64652;HTU21D;51062;45.120;37.660;2022-12-07T14:26:15;3.02;84.74
64652;HTU21D;51062;45.120;37.660;2022-12-07T14:28:43;3.02;84.72
64652;HTU21D;51062;45.120;37.660;2022-12-07T14:31:15;3.01;84.71
64652;HTU21D;51062;45.120;37.660;2022-12-07T14:33:41;2.97;84.74
64652;HTU21D;51062;45.120;37.660;2022-12-07T14:36:12;2.95;84.78
64652;HTU21D;51062;45.120;37.660;2022-12-07T14:38:39;2.93;84.81
64652;HTU21D;51062;45.120;37.660;2022-12-07T14:41:14;2.91;84.86
64652;HTU21D;51062;45.120;37.660;2022-12-07T14:44:00;2.89;84.89
64652;HTU21D;51062;45.120;37.660;2022-12-07T14:46:26;2.89;84.93
64652;HTU21D;51062;45.120;37.660;2022-12-07T14:48:52;2.91;84.93
64652;HTU21D;51062;45.120;37.660;2022-12-07T14:51:18;2.90;84.96
64652;HTU21D;51062;45.120;37.660;2022-12-07T14:53:48;2.93;84.97
64652;HTU21D;51062;45.120;37.660;2022-12-07T14:56:16;2.95;84.97
64652;HTU21D;51062;45.120;37.660;2022-12-07T14:58:42;2.96;84.93
64652;HTU21D;51062;45.120;37.660;2022-12-07T15:01:08;2.99;84.91
64652;HTU21D;51062;45.120;37.660;2022-12-07T15:03:34;2.99;84.88
64652;HTU21D;51062;45.120;37.660;2022-12-07T15:06:00;3.01;84.88
64652;HTU21D;51062;45.120;37.660;2022-12-07T15:08:27;3.02;84.83
64652;HTU21D;51062;45.120;37.660;2022-12-07T15:10:53;3.03;84.81
64652;HTU21D;51062;45.120;37.660;2022-12-07T15:13:19;3.02;84.81
64652;HTU21D;51062;45.120;37.660;2022-12-07T15:16:07;3.02;84.84
64652;HTU21D;51062;45.120;37.660;2022-12-07T15:18:34;3.02;84.87
64652;HTU21D;51062;45.120;37.660;2022-12-07T15:21:00;3.02;84.88
64652;HTU21D;51062;45.120;37.660;2022-12-07T15:23:26;3.01;84.88
64652;HTU21D;51062;45.120;37.660;2022-12-07T15:25:52;3.02;84.89
64652;HTU21D;51062;45.120;37.660;2022-12-07T15:28:18;3.01;84.93
64652;HTU21D;51062;45.120;37.660;2022-12-07T15:30:44;3.00;84.94
64652;HTU21D;51062;45.120;37.660;2022-12-07T15:33:12;3.01;84.97
64652;HTU21D;51062;45.120;37.660;2022-12-07T15:35:42;3.02;85.00
64652;HTU21D;51062;45.120;37.660;2022-12-07T15:38:08;3.02;85.03
64652;HTU21D;51062;45.120;37.660;2022-12-07T15:40:35;3.02;85.03
64652;HTU21D;51062;45.120;37.660;2022-12-07T15:43:02;3.02;85.03
64652;HTU21D;51062;45.120;37.660;2022-12-07T15:45:28;3.04;85.01
64652;HTU21D;51062;45.120;37.660;2022-12-07T15:47:54;3.04;85.02
64652;HTU21D;51062;45.120;37.660;2022-12-07T15:50:21;3.04;85.02
64652;HTU21D;51062;45.120;37.660;2022-12-07T15:52:48;3.04;85.03
64652;HTU21D;51062;45.120;37.660;2022-12-07T15:55:14;3.05;85.03
64652;HTU21D;51062;45.120;37.660;2022-12-07T15:57:40;3.06;85.05
64652;HTU21D;51062;45.120;37.660;2022-12-07T16:00:08;3.08;85.04
64652;HTU21D;51062;45.120;37.660;2022-12-07T16:02:36;3.10;85.04
64652;HTU21D;51062;45.120;37.660;2022-12-07T16:05:02;3.09;85.03
64652;HTU21D;51062;45.120;37.660;2022-12-07T16:07:28;3.08;85.06
64652;HTU21D;51062;45.120;37.660;2022-12-07T16:09:55;3.06;85.07
64652;HTU21D;51062;45.120;37.660;2022-12-07T16:12:21;3.09;85.08
64652;HTU21D;51062;45.120;37.660;2022-12-07T16:14:47;3.10;85.09
64652;HTU21D;51062;45.120;37.660;2022-12-07T16:17:13;3.09;85.11
64652;HTU21D;51062;45.120;37.660;2022-12-07T16:19:39;3.10;85.14
64652;HTU21D;51062;45.120;37.660;2022-12-07T16:22:05;3.10;85.16
64652;HTU21D;51062;45.120;37.660;2022-12-07T16:24:32;3.10;85.19
64652;HTU21D;51062;45.120;37.660;2022-12-07T16:26:58;3.11;85.19
64652;HTU21D;51062;45.120;37.660;2022-12-07T16:29:24;3.11;85.20
64652;HTU21D;51062;45.120;37.660;2022-12-07T16:31:51;3.12;85.19
64652;HTU21D;51062;45.120;37.660;2022-12-07T16:34:18;3.13;85.23
64652;HTU21D;51062;45.120;37.660;2022-12-07T16:36:44;3.15;85.22
64652;HTU21D;51062;45.120;37.660;2022-12-07T16:39:11;3.15;85.22
64652;HTU21D;51062;45.120;37.660;2022-12-07T16:41:37;3.15;85.24
64652;HTU21D;51062;45.120;37.660;2022-12-07T16:44:05;3.16;85.26
64652;HTU21D;51062;45.120;37.660;2022-12-07T16:46:32;3.15;85.26
64652;HTU21D;51062;45.120;37.660;2022-12-07T16:48:59;3.14;85.28
64652;HTU21D;51062;45.120;37.660;2022-12-07T16:51:25;3.14;85.29
64652;HTU21D;51062;45.120;37.660;2022-12-07T16:53:52;3.13;85.32
64652;HTU21D;51062;45.120;37.660;2022-12-07T16:56:19;3.14;85.32
64652;HTU21D;51062;45.120;37.660;2022-12-07T16:58:45;3.14;85.32
64652;HTU21D;51062;45.120;37.660;2022-12-07T17:01:19;3.14;85.31
64652;HTU21D;51062;45.120;37.660;2022-12-07T17:03:46;3.13;85.32
64652;HTU21D;51062;45.120;37.660;2022-12-07T17:06:17;3.12;85.34
64652;HTU21D;51062;45.120;37.660;2022-12-07T17:08:44;3.11;85.35
64652;HTU21D;51062;45.120;37.660;2022-12-07T17:11:19;3.11;85.35
64652;HTU21D;51062;45.120;37.660;2022-12-07T17:13:45;3.11;85.39
64652;HTU21D;51062;45.120;37.660;2022-12-07T17:16:30;3.09;85.38
64652;HTU21D;51062;45.120;37.660;2022-12-07T17:18:57;3.09;85.40
64652;HTU21D;51062;45.120;37.660;2022-12-07T17:21:24;3.09;85.42
64652;HTU21D;51062;45.120;37.660;2022-12-07T17:23:51;3.09;85.44
64652;HTU21D;51062;45.120;37.660;2022-12-07T17:26:22;3.11;85.48
64652;HTU21D;51062;45.120;37.660;2022-12-07T17:28:49;3.11;85.48
64652;HTU21D;51062;45.120;37.660;2022-12-07T17:31:18;3.11;85.48
64652;HTU21D;51062;45.120;37.660;2022-12-07T17:33:44;3.10;85.53
64652;HTU21D;51062;45.120;37.660;2022-12-07T17:36:15;3.10;85.58
64652;HTU21D;51062;45.120;37.660;2022-12-07T17:38:42;3.09;85.61
64652;HTU21D;51062;45.120;37.660;2022-12-07T17:41:28;3.09;85.67
64652;HTU21D;51062;45.120;37.660;2022-12-07T17:44:17;3.10;85.63
64652;HTU21D;51062;45.120;37.660;2022-12-07T17:46:45;3.09;85.64
64652;HTU21D;51062;45.120;37.660;2022-12-07T17:49:11;3.10;85.65
64652;HTU21D;51062;45.120;37.660;2022-12-07T17:51:38;3.10;85.67
64652;HTU21D;51062;45.120;37.660;2022-12-07T17:54:22;3.12;85.64
64652;HTU21D;51062;45.120;37.660;2022-12-07T17:56:48;3.13;85.65
64652;HTU21D;51062;45.120;37.660;2022-12-07T17:59:15;3.15;85.64